createdAt,value
2018-07-11T00:01:00.657Z,7.77
2018-07-11T00:03:43.011Z,8.17
2018-07-11T00:06:11.820Z,8.07
2018-07-11T00:08:40.574Z,7.93
2018-07-11T00:11:10.073Z,8.20
2018-07-11T00:13:38.923Z,7.53
2018-07-11T00:16:07.458Z,8.73
2018-07-11T00:18:36.033Z,9.03
2018-07-11T00:21:04.638Z,8.60
2018-07-11T00:23:33.778Z,8.37
2018-07-11T00:26:02.980Z,8.63
2018-07-11T00:28:31.653Z,8.73
2018-07-11T00:31:00.927Z,8.87
2018-07-11T00:33:29.415Z,7.93
2018-07-11T00:35:57.923Z,8.77
2018-07-11T00:38:26.493Z,8.47
2018-07-11T00:40:55.113Z,9.23
2018-07-11T00:43:23.686Z,8.93
2018-07-11T00:45:52.823Z,9.17
2018-07-11T00:48:21.399Z,9.30
2018-07-11T00:50:49.982Z,9.20
2018-07-11T00:53:19.129Z,9.43
2018-07-11T00:55:47.636Z,8.83
2018-07-11T00:58:27.723Z,9.93
2018-07-11T01:01:14.815Z,9.80
2018-07-11T01:03:49.842Z,9.50
2018-07-11T01:06:19.336Z,9.87
2018-07-11T01:08:51.122Z,9.47
2018-07-11T01:11:19.814Z,9.47
2018-07-11T01:13:49.246Z,9.73
2018-07-11T01:16:18.919Z,9.60
2018-07-11T01:18:59.531Z,8.63
2018-07-11T01:21:28.310Z,9.50
2018-07-11T01:23:56.859Z,9.63
2018-07-11T01:26:32.556Z,10.20
2018-07-11T01:29:01.141Z,9.73
2018-07-11T01:31:29.690Z,9.67
2018-07-11T01:33:58.635Z,9.90
2018-07-11T01:36:27.584Z,10.97
2018-07-11T01:38:56.626Z,10.40
2018-07-11T01:41:25.091Z,10.93
2018-07-11T01:43:53.739Z,11.80
2018-07-11T01:46:24.665Z,11.33
2018-07-11T01:48:53.455Z,10.80
2018-07-11T01:51:27.930Z,10.80
2018-07-11T01:53:56.566Z,9.63
2018-07-11T01:56:25.264Z,9.80
2018-07-11T01:58:53.891Z,10.10
2018-07-11T02:01:22.411Z,9.80
2018-07-11T02:03:51.326Z,10.97
2018-07-11T02:06:20.237Z,10.90
2018-07-11T02:08:48.729Z,10.53
2018-07-11T02:11:17.277Z,10.70
2018-07-11T02:13:45.759Z,11.20
2018-07-11T02:16:14.285Z,10.50
2018-07-11T02:18:42.944Z,10.47
2018-07-11T02:21:11.492Z,10.80
2018-07-11T02:23:39.990Z,9.87
2018-07-11T02:26:08.516Z,10.13
2018-07-11T02:28:36.958Z,10.27
2018-07-11T02:31:05.648Z,10.60
2018-07-11T02:33:34.226Z,10.60
2018-07-11T02:36:02.793Z,10.70
2018-07-11T02:38:32.347Z,10.97
2018-07-11T02:41:01.176Z,10.33
2018-07-11T02:43:29.633Z,10.60
2018-07-11T02:45:58.525Z,10.60
2018-07-11T02:48:27.220Z,11.20
2018-07-11T02:50:55.767Z,11.63
2018-07-11T02:53:25.248Z,12.13
2018-07-11T02:55:54.268Z,12.07
2018-07-11T02:58:22.742Z,12.37
2018-07-11T03:00:51.262Z,13.23
2018-07-11T03:03:19.759Z,13.40
2018-07-11T03:05:48.379Z,13.40
2018-07-11T03:08:17.804Z,13.03
2018-07-11T03:10:47.107Z,13.43
2018-07-11T03:13:19.071Z,12.97
2018-07-11T03:15:48.017Z,12.77
2018-07-11T03:18:16.666Z,13.00
2018-07-11T03:20:45.790Z,12.93
2018-07-11T03:23:14.412Z,14.23
2018-07-11T03:25:42.876Z,12.57
2018-07-11T03:28:11.828Z,12.40
2018-07-11T03:30:40.446Z,11.87
2018-07-11T03:33:08.943Z,11.63
2018-07-11T03:35:37.446Z,11.37
2018-07-11T03:38:06.114Z,10.63
2018-07-11T03:40:34.767Z,10.53
2018-07-11T03:43:03.317Z,10.70
2018-07-11T03:45:32.083Z,10.20
2018-07-11T03:48:00.630Z,9.83
2018-07-11T03:50:29.106Z,9.83
2018-07-11T03:52:57.887Z,10.00
2018-07-11T03:55:26.487Z,9.90
2018-07-11T03:57:54.962Z,9.90
2018-07-11T04:00:26.076Z,9.90
2018-07-11T04:02:55.858Z,10.70
2018-07-11T04:05:24.292Z,10.77
2018-07-11T04:07:52.797Z,10.47
2018-07-11T04:10:21.362Z,10.20
2018-07-11T04:12:56.818Z,10.40
2018-07-11T04:15:25.525Z,10.60
2018-07-11T04:17:54.025Z,10.57
2018-07-11T04:20:23.748Z,10.67
2018-07-11T04:22:52.389Z,11.07
2018-07-11T04:25:21.268Z,9.90
2018-07-11T04:27:49.979Z,10.30
2018-07-11T04:30:18.500Z,9.93
2018-07-11T04:32:47.066Z,10.27
2018-07-11T04:35:15.655Z,11.13
2018-07-11T04:37:44.704Z,9.77
2018-07-11T04:40:13.171Z,8.80
2018-07-11T04:42:43.758Z,9.97
2018-07-11T04:45:12.297Z,8.73
2018-07-11T04:47:41.010Z,8.83
2018-07-11T04:50:09.749Z,10.00
2018-07-11T04:52:38.603Z,9.37
2018-07-11T04:55:07.629Z,9.97
2018-07-11T04:57:36.137Z,9.10
2018-07-11T05:00:04.735Z,9.00
2018-07-11T05:02:33.331Z,9.17
2018-07-11T05:05:01.883Z,9.30
2018-07-11T05:07:30.505Z,8.97
2018-07-11T05:09:59.060Z,9.03
2018-07-11T05:12:27.753Z,9.33
2018-07-11T05:14:56.348Z,8.73
2018-07-11T05:17:24.902Z,8.87
2018-07-11T05:19:53.488Z,8.70
2018-07-11T05:22:21.975Z,8.37
2018-07-11T05:24:50.412Z,9.20
2018-07-11T05:27:18.895Z,8.00
2018-07-11T05:29:47.382Z,8.60
2018-07-11T05:32:15.853Z,7.90
2018-07-11T05:34:44.781Z,8.37
2018-07-11T05:37:13.203Z,7.87
2018-07-11T05:39:42.373Z,8.07
2018-07-11T05:42:10.891Z,7.37
2018-07-11T05:44:39.406Z,7.50
2018-07-11T05:47:08.157Z,7.37
2018-07-11T05:49:36.651Z,6.90
2018-07-11T05:52:05.302Z,7.53
2018-07-11T05:54:34.981Z,7.20
2018-07-11T05:57:03.899Z,6.90
2018-07-11T05:59:32.400Z,6.87
2018-07-11T06:02:01.254Z,6.50
2018-07-11T06:04:29.716Z,6.67
2018-07-11T06:06:58.201Z,6.73
2018-07-11T06:09:26.786Z,7.03
2018-07-11T06:11:55.325Z,7.70
2018-07-11T06:14:23.877Z,6.43
2018-07-11T06:16:52.554Z,6.70
2018-07-11T06:19:21.139Z,6.80
2018-07-11T06:21:50.896Z,7.03
2018-07-11T06:24:20.118Z,7.20
2018-07-11T06:26:48.892Z,5.60
2018-07-11T06:29:17.405Z,6.77
2018-07-11T06:31:46.422Z,6.00
2018-07-11T06:34:14.884Z,6.10
2018-07-11T06:36:43.489Z,5.47
2018-07-11T06:39:12.015Z,5.33
2018-07-11T06:41:40.496Z,5.70
2018-07-11T06:44:09.068Z,6.00
2018-07-11T06:46:37.546Z,5.00
2018-07-11T06:49:06.277Z,5.27
2018-07-11T06:51:34.737Z,5.70
2018-07-11T06:54:03.310Z,5.93
2018-07-11T06:56:31.776Z,5.53
2018-07-11T06:59:00.206Z,6.07
2018-07-11T07:01:28.672Z,6.00
2018-07-11T07:03:57.125Z,7.20
2018-07-11T07:06:25.576Z,7.80
2018-07-11T07:08:54.078Z,6.73
2018-07-11T07:11:22.715Z,6.30
2018-07-11T07:13:51.337Z,5.47
2018-07-11T07:16:20.018Z,5.80
2018-07-11T07:18:48.567Z,5.60
2018-07-11T07:21:17.294Z,5.53
2018-07-11T07:23:45.852Z,6.17
2018-07-11T07:26:14.325Z,5.87
2018-07-11T07:28:43.083Z,6.70
2018-07-11T07:31:11.691Z,6.83
2018-07-11T07:33:40.269Z,7.40
2018-07-11T07:36:08.832Z,8.13
2018-07-11T07:38:41.753Z,8.13
2018-07-11T07:41:10.652Z,8.43
2018-07-11T07:43:39.863Z,8.17
2018-07-11T07:46:08.630Z,7.90
2018-07-11T07:48:37.212Z,8.47
2018-07-11T07:51:05.799Z,8.07
2018-07-11T07:53:34.994Z,8.67
2018-07-11T07:56:04.140Z,8.80
2018-07-11T07:58:32.745Z,8.47
2018-07-11T08:01:01.764Z,9.33
2018-07-11T08:03:30.810Z,9.93
2018-07-11T08:05:59.326Z,8.63
2018-07-11T08:08:27.929Z,9.53
2018-07-11T08:10:56.478Z,8.40
2018-07-11T08:13:25.141Z,8.77
2018-07-11T08:15:53.728Z,9.27
2018-07-11T08:18:22.314Z,8.97
2018-07-11T08:20:50.907Z,7.70
2018-07-11T08:23:34.571Z,7.77
2018-07-11T08:26:14.483Z,7.70
2018-07-11T08:31:05.333Z,7.50
2018-07-11T08:33:45.187Z,8.37
2018-07-11T08:37:25.236Z,8.63
2018-07-11T08:40:08.691Z,7.90
2018-07-11T08:47:01.422Z,8.17
2018-07-11T08:49:56.844Z,9.37
2018-07-11T08:52:34.585Z,8.67
2018-07-11T08:55:21.910Z,8.10
2018-07-11T08:58:00.445Z,8.30
2018-07-11T09:01:17.597Z,7.47
2018-07-11T09:04:55.629Z,7.63
2018-07-11T09:08:38.763Z,8.07
2018-07-11T09:12:16.231Z,7.20
2018-07-11T09:15:06.917Z,7.73
2018-07-11T09:17:41.735Z,7.97
2018-07-11T09:24:33.833Z,7.13
2018-07-11T09:27:02.395Z,6.97
2018-07-11T09:29:30.911Z,6.43
2018-07-11T09:31:59.556Z,7.43
2018-07-11T09:34:28.193Z,7.27
2018-07-11T09:36:56.824Z,7.20
2018-07-11T09:39:25.406Z,7.67
2018-07-11T09:41:53.973Z,8.40
2018-07-11T09:44:23.300Z,8.20
2018-07-11T09:46:52.869Z,8.73
2018-07-11T09:49:21.606Z,8.13
2018-07-11T09:51:50.163Z,9.00
2018-07-11T09:54:18.866Z,8.47
2018-07-11T09:56:47.998Z,8.73
2018-07-11T09:59:17.079Z,9.03
2018-07-11T10:01:45.759Z,8.87
2018-07-11T10:04:15.922Z,9.00
2018-07-11T10:06:45.045Z,10.37
2018-07-11T10:09:13.589Z,9.17
2018-07-11T10:11:42.263Z,9.40
2018-07-11T10:14:10.777Z,8.73
2018-07-11T10:16:39.442Z,8.93
2018-07-11T10:19:07.864Z,8.30
2018-07-11T10:21:36.567Z,8.27
2018-07-11T10:24:05.029Z,7.93
2018-07-11T10:26:33.569Z,7.90
2018-07-11T10:29:02.111Z,7.93
2018-07-11T10:31:37.320Z,8.23
2018-07-11T10:34:05.946Z,7.30
2018-07-11T10:36:34.856Z,7.27
2018-07-11T10:39:03.575Z,7.77
2018-07-11T10:41:32.319Z,6.80
2018-07-11T10:44:00.768Z,6.90
2018-07-11T10:46:29.270Z,6.67
2018-07-11T10:48:58.135Z,6.87
2018-07-11T10:51:26.600Z,7.10
2018-07-11T10:53:55.069Z,6.43
2018-07-11T10:56:23.720Z,6.77
2018-07-11T10:58:52.193Z,5.77
2018-07-11T11:01:20.785Z,5.80
2018-07-11T11:03:49.359Z,5.57
2018-07-11T11:06:17.868Z,6.00
2018-07-11T11:08:46.710Z,5.93
2018-07-11T11:11:15.309Z,5.40
2018-07-11T11:13:44.291Z,5.63
2018-07-11T11:16:12.916Z,5.17
2018-07-11T11:18:41.475Z,5.10
2018-07-11T11:21:10.530Z,5.37
2018-07-11T11:23:39.048Z,5.13
2018-07-11T11:26:07.593Z,4.87
2018-07-11T11:28:36.160Z,5.17
2018-07-11T11:31:05.052Z,6.00
2018-07-11T11:33:34.261Z,4.90
2018-07-11T11:36:02.856Z,5.37
2018-07-11T11:38:31.417Z,5.27
2018-07-11T11:41:00.018Z,5.73
2018-07-11T11:43:28.595Z,5.50
2018-07-11T11:45:57.330Z,5.43
2018-07-11T11:48:25.852Z,5.70
2018-07-11T11:50:54.468Z,5.30
2018-07-11T11:53:23.024Z,5.77
2018-07-11T11:55:51.779Z,5.50
2018-07-11T11:58:20.218Z,6.07
2018-07-11T12:00:48.655Z,6.57
2018-07-11T12:03:17.160Z,5.83
2018-07-11T12:05:45.731Z,6.13
2018-07-11T12:08:14.590Z,6.00
2018-07-11T12:10:43.088Z,5.50
2018-07-11T12:13:11.682Z,5.80
2018-07-11T12:15:40.316Z,5.70
2018-07-11T12:18:08.901Z,5.40
2018-07-11T12:20:37.640Z,5.70
2018-07-11T12:23:06.160Z,5.17
2018-07-11T12:25:35.020Z,4.60
2018-07-11T12:28:04.022Z,4.70
2018-07-11T12:30:32.713Z,5.30
2018-07-11T12:33:01.145Z,5.10
2018-07-11T12:35:29.720Z,4.80
2018-07-11T12:37:58.210Z,5.40
2018-07-11T12:40:26.684Z,5.00
2018-07-11T12:42:55.183Z,5.13
2018-07-11T12:45:23.845Z,5.20
2018-07-11T12:50:02.602Z,5.13
2018-07-11T12:52:31.058Z,5.20
2018-07-11T12:54:59.619Z,4.80
2018-07-11T12:57:28.089Z,4.67
2018-07-11T12:59:56.704Z,4.40
2018-07-11T13:02:25.168Z,5.00
2018-07-11T13:04:53.792Z,4.23
2018-07-11T13:07:22.411Z,4.50
2018-07-11T13:09:50.801Z,4.50
2018-07-11T13:12:19.258Z,4.13
2018-07-11T13:14:47.707Z,4.57
2018-07-11T13:17:16.186Z,4.87
2018-07-11T13:19:44.603Z,4.83
2018-07-11T13:22:14.497Z,4.70
2018-07-11T13:24:42.882Z,4.67
2018-07-11T13:27:11.311Z,4.37
2018-07-11T13:29:39.635Z,4.60
2018-07-11T13:32:08.049Z,4.80
2018-07-11T13:34:36.461Z,4.77
2018-07-11T13:37:04.877Z,5.00
2018-07-11T13:39:33.264Z,4.27
2018-07-11T13:42:01.593Z,3.90
2018-07-11T13:44:30.027Z,4.00
2018-07-11T13:46:58.477Z,4.10
2018-07-11T13:49:26.923Z,4.80
2018-07-11T13:51:55.301Z,4.20
2018-07-11T13:54:23.677Z,4.17
2018-07-11T13:56:52.231Z,4.97
2018-07-11T13:59:20.625Z,5.40
2018-07-11T14:01:49.192Z,5.10
2018-07-11T14:04:17.567Z,5.50
2018-07-11T14:06:45.954Z,5.20
2018-07-11T14:09:14.347Z,4.73
2018-07-11T14:11:43.074Z,4.80
2018-07-11T14:14:11.579Z,5.20
2018-07-11T14:16:39.990Z,5.67
2018-07-11T14:19:08.385Z,5.10
2018-07-11T14:21:36.797Z,4.87
2018-07-11T14:24:05.256Z,4.70
2018-07-11T14:26:33.713Z,4.90
2018-07-11T14:29:04.038Z,4.30
2018-07-11T14:31:36.211Z,4.43
2018-07-11T14:34:06.851Z,4.60
2018-07-11T14:36:35.840Z,5.40
2018-07-11T14:39:05.860Z,5.07
2018-07-11T14:41:34.379Z,5.10
2018-07-11T14:44:02.897Z,5.23
2018-07-11T14:46:31.719Z,4.90
2018-07-11T14:49:00.375Z,4.60
2018-07-11T14:51:28.847Z,4.67
2018-07-11T14:53:58.075Z,4.90
2018-07-11T14:56:26.869Z,4.40
2018-07-11T14:58:57.143Z,4.20
2018-07-11T15:01:25.672Z,4.73
2018-07-11T15:03:54.955Z,4.47
2018-07-11T15:06:24.084Z,4.63
2018-07-11T15:08:53.804Z,4.43
2018-07-11T15:11:22.553Z,4.53
2018-07-11T15:13:51.135Z,4.70
2018-07-11T15:16:19.720Z,4.53
2018-07-11T15:18:48.476Z,4.87
2018-07-11T15:21:17.263Z,5.00
2018-07-11T15:23:45.672Z,4.90
2018-07-11T15:26:14.069Z,5.40
2018-07-11T15:28:42.798Z,5.33
2018-07-11T15:31:11.265Z,5.13
2018-07-11T15:33:39.741Z,6.47
2018-07-11T15:36:08.083Z,5.77
2018-07-11T15:38:36.498Z,5.70
2018-07-11T15:41:04.907Z,5.93
2018-07-11T15:43:33.919Z,5.27
2018-07-11T15:46:02.484Z,5.23
2018-07-11T15:48:30.944Z,5.67
2018-07-11T15:50:59.372Z,5.23
2018-07-11T15:53:29.347Z,5.47
2018-07-11T15:55:57.869Z,5.13
2018-07-11T15:58:27.509Z,4.70
2018-07-11T16:01:00.123Z,5.00
2018-07-11T16:03:28.534Z,4.43
2018-07-11T16:05:57.038Z,4.50
2018-07-11T16:08:25.456Z,4.60
2018-07-11T16:10:57.484Z,4.77
2018-07-11T16:13:25.851Z,4.70
2018-07-11T16:15:54.239Z,5.07
2018-07-11T16:18:22.672Z,5.13
2018-07-11T16:20:51.625Z,4.50
2018-07-11T16:23:19.970Z,4.70
2018-07-11T16:25:48.515Z,4.73
2018-07-11T16:28:16.872Z,4.50
2018-07-11T16:30:45.470Z,4.90
2018-07-11T16:33:13.896Z,5.03
2018-07-11T16:35:42.442Z,5.40
2018-07-11T16:38:10.844Z,4.63
2018-07-11T16:40:39.291Z,4.60
2018-07-11T16:43:07.818Z,5.00
2018-07-11T16:45:36.194Z,4.80
2018-07-11T16:48:04.923Z,5.47
2018-07-11T16:50:33.326Z,4.83
2018-07-11T16:53:01.790Z,4.77
2018-07-11T16:55:31.303Z,5.10
2018-07-11T16:57:59.729Z,5.00
2018-07-11T17:00:37.467Z,4.77
2018-07-11T17:03:09.557Z,5.23
2018-07-11T17:06:10.468Z,5.67
2018-07-11T17:08:50.151Z,5.67
2018-07-11T17:11:23.656Z,6.30
2018-07-11T17:13:56.036Z,5.87
2018-07-11T17:16:31.759Z,6.10
2018-07-11T17:19:05.215Z,6.97
2018-07-11T17:21:54.126Z,6.83
2018-07-11T17:24:23.054Z,6.80
2018-07-11T17:26:55.568Z,6.83
2018-07-11T17:29:27.682Z,7.10
2018-07-11T17:32:09.010Z,7.83
2018-07-11T17:34:38.117Z,8.03
2018-07-11T17:37:07.875Z,7.80
2018-07-11T17:39:50.475Z,8.40
2018-07-11T17:42:23.220Z,8.77
2018-07-11T17:45:13.674Z,9.50
2018-07-11T17:47:52.107Z,8.77
2018-07-11T17:50:26.188Z,9.37
2018-07-11T17:53:16.632Z,10.83
2018-07-11T17:55:52.506Z,11.37
2018-07-11T17:58:23.945Z,11.53
2018-07-11T18:00:57.971Z,11.70
2018-07-11T18:03:37.916Z,11.77
2018-07-11T18:06:12.348Z,12.83
2018-07-11T18:08:49.996Z,13.27
2018-07-11T18:11:18.379Z,12.90
2018-07-11T18:13:51.262Z,13.43
2018-07-11T18:16:45.122Z,13.87
2018-07-11T18:19:31.740Z,13.93
2018-07-11T18:22:41.050Z,13.77
2018-07-11T18:26:23.227Z,13.73
2018-07-11T18:29:08.832Z,13.40
2018-07-11T18:32:02.690Z,14.33
2018-07-11T18:36:47.991Z,13.97
2018-07-11T18:39:27.191Z,14.43
2018-07-11T18:43:05.157Z,15.67
2018-07-11T18:46:49.263Z,14.97
2018-07-11T18:49:26.648Z,14.13
2018-07-11T18:52:31.634Z,14.80
2018-07-11T18:55:09.040Z,15.40
2018-07-11T18:57:51.762Z,15.13
2018-07-11T19:00:43.511Z,15.43
2018-07-11T19:03:26.987Z,15.70
2018-07-11T19:07:10.527Z,15.10
2018-07-11T19:09:43.679Z,16.63
2018-07-11T19:12:29.673Z,16.90
2018-07-11T19:15:05.006Z,16.83
2018-07-11T19:17:39.062Z,15.87
2018-07-11T19:21:02.282Z,15.33
2018-07-11T19:23:37.943Z,15.17
2018-07-11T19:26:18.789Z,15.03
2018-07-11T19:29:10.534Z,15.73
2018-07-11T19:31:56.043Z,15.73
2018-07-11T19:34:38.272Z,16.30
2018-07-11T19:37:15.715Z,16.30
2018-07-11T19:40:53.943Z,16.93
2018-07-11T19:43:39.020Z,16.87
2018-07-11T19:46:18.765Z,17.20
2018-07-11T19:48:56.151Z,17.43
2018-07-11T19:51:38.793Z,17.90
2018-07-11T19:55:24.908Z,18.47
2018-07-11T19:57:53.297Z,16.53
2018-07-11T20:00:21.727Z,17.23
2018-07-11T20:02:50.105Z,16.00
2018-07-11T20:05:18.481Z,16.27
2018-07-11T20:07:47.243Z,17.50
2018-07-11T20:10:15.649Z,16.57
2018-07-11T20:12:44.302Z,17.30
2018-07-11T20:15:13.316Z,17.63
2018-07-11T20:17:41.867Z,18.30
2018-07-11T20:20:10.223Z,18.40
2018-07-11T20:22:38.623Z,18.43
2018-07-11T20:25:07.014Z,18.00
2018-07-11T20:27:35.385Z,18.30
2018-07-11T20:30:03.854Z,17.83
2018-07-11T20:32:32.224Z,16.30
2018-07-11T20:35:00.585Z,16.13
2018-07-11T20:37:28.948Z,17.53
2018-07-11T20:39:57.674Z,15.77
2018-07-11T20:42:26.252Z,18.33
2018-07-11T20:44:55.451Z,18.23
2018-07-11T20:47:23.849Z,17.40
2018-07-11T20:49:52.309Z,17.50
2018-07-11T20:52:20.767Z,16.50
2018-07-11T20:54:49.099Z,16.90
2018-07-11T20:57:17.484Z,13.77
2018-07-11T20:59:59.727Z,11.23
2018-07-11T21:02:39.988Z,9.93
2018-07-11T21:05:18.674Z,9.63
2018-07-11T21:07:58.339Z,9.30
2018-07-11T21:10:56.232Z,9.17
2018-07-11T21:14:06.556Z,9.00
2018-07-11T21:16:48.066Z,9.50
2018-07-11T21:19:16.483Z,9.37
2018-07-11T21:21:44.988Z,9.50
2018-07-11T21:24:13.856Z,9.33
2018-07-11T21:26:42.256Z,10.57
2018-07-11T21:29:10.727Z,9.70
2018-07-11T21:31:39.169Z,8.80
2018-07-11T21:34:07.931Z,9.83
2018-07-11T21:36:36.864Z,10.40
2018-07-11T21:39:05.846Z,9.83
2018-07-11T21:41:34.490Z,9.90
2018-07-11T21:44:03.179Z,9.73
2018-07-11T21:46:34.228Z,10.33
2018-07-11T21:49:02.604Z,11.00
2018-07-11T21:51:30.996Z,10.67
2018-07-11T21:53:59.342Z,11.90
2018-07-11T21:56:30.888Z,10.67
2018-07-11T21:58:59.559Z,11.17
2018-07-11T22:01:27.888Z,10.50
2018-07-11T22:03:56.400Z,10.57
2018-07-11T22:06:24.725Z,10.67
2018-07-11T22:08:53.135Z,12.10
2018-07-11T22:11:21.648Z,11.60
2018-07-11T22:13:52.124Z,11.80
2018-07-11T22:16:22.022Z,11.73
2018-07-11T22:18:52.280Z,11.97
2018-07-11T22:21:19.531Z,11.47
2018-07-11T22:23:49.355Z,11.57
2018-07-11T22:26:17.561Z,11.43
2018-07-11T22:28:44.792Z,11.17
2018-07-11T22:31:12.030Z,11.73
2018-07-11T22:33:39.293Z,12.00
2018-07-11T22:36:06.673Z,10.73
2018-07-11T22:38:34.419Z,11.67
2018-07-11T22:41:01.696Z,11.03
2018-07-11T22:43:28.982Z,11.30
2018-07-11T22:45:56.248Z,10.93
2018-07-11T22:48:23.493Z,10.77
2018-07-11T22:50:50.732Z,11.93
2018-07-11T22:53:18.018Z,11.73
2018-07-11T22:55:46.196Z,12.13
2018-07-11T22:58:13.516Z,12.30
2018-07-11T23:00:40.743Z,11.87
2018-07-11T23:03:08.224Z,12.23
2018-07-11T23:05:35.483Z,11.50
2018-07-11T23:08:02.722Z,11.77
2018-07-11T23:10:29.997Z,12.03
2018-07-11T23:12:57.259Z,12.03
2018-07-11T23:15:24.618Z,12.70
2018-07-11T23:17:51.882Z,12.60
2018-07-11T23:20:19.116Z,11.70
2018-07-11T23:22:46.384Z,12.67
2018-07-11T23:25:13.664Z,12.60
2018-07-11T23:27:40.904Z,12.67
2018-07-11T23:30:08.155Z,13.63
2018-07-11T23:32:35.419Z,13.07
2018-07-11T23:35:02.657Z,12.47
2018-07-11T23:37:30.143Z,13.17
2018-07-11T23:39:57.484Z,13.57
2018-07-11T23:42:24.768Z,13.90
2018-07-11T23:44:52.012Z,15.00
2018-07-11T23:47:19.412Z,15.57
2018-07-11T23:49:46.947Z,15.20
2018-07-11T23:52:14.195Z,14.50
2018-07-11T23:54:41.433Z,15.63
2018-07-11T23:57:08.697Z,16.00
2018-07-11T23:59:35.948Z,17.53
